sensor_id;sensor_type;location;lat;lon;timestamp;P1;durP1;ratioP1;P2;durP2;ratioP2
16262;SDS011;8239;48.594;8.598;2023-03-23T00:01:00;1.40;;;1.10;;
16262;SDS011;8239;48.594;8.598;2023-03-23T00:03:27;2.17;;;1.27;;
16262;SDS011;8239;48.594;8.598;2023-03-23T00:05:56;1.43;;;1.20;;
16262;SDS011;8239;48.594;8.598;2023-03-23T00:08:29;1.13;;;1.10;;
16262;SDS011;8239;48.594;8.598;2023-03-23T00:10:58;1.20;;;1.10;;
16262;SDS011;8239;48.594;8.598;2023-03-23T00:13:26;2.70;;;1.20;;
16262;SDS011;8239;48.594;8.598;2023-03-23T00:15:55;2.30;;;1.20;;
16262;SDS011;8239;48.594;8.598;2023-03-23T00:18:25;1.47;;;1.10;;
16262;SDS011;8239;48.594;8.598;2023-03-23T00:20:53;1.03;;;0.93;;
16262;SDS011;8239;48.594;8.598;2023-03-23T00:23:21;1.60;;;1.37;;
16262;SDS011;8239;48.594;8.598;2023-03-23T00:25:50;1.30;;;1.20;;
16262;SDS011;8239;48.594;8.598;2023-03-23T00:28:23;1.53;;;1.07;;
16262;SDS011;8239;48.594;8.598;2023-03-23T00:30:55;1.43;;;1.03;;
16262;SDS011;8239;48.594;8.598;2023-03-23T00:33:26;1.30;;;1.20;;
16262;SDS011;8239;48.594;8.598;2023-03-23T00:35:54;2.20;;;1.20;;
16262;SDS011;8239;48.594;8.598;2023-03-23T00:38:22;2.60;;;1.23;;
16262;SDS011;8239;48.594;8.598;2023-03-23T00:40:50;1.40;;;1.30;;
16262;SDS011;8239;48.594;8.598;2023-03-23T00:43:19;1.20;;;1.10;;
16262;SDS011;8239;48.594;8.598;2023-03-23T00:45:51;1.60;;;1.30;;
16262;SDS011;8239;48.594;8.598;2023-03-23T00:48:18;1.57;;;1.27;;
16262;SDS011;8239;48.594;8.598;2023-03-23T00:50:45;1.90;;;1.57;;
16262;SDS011;8239;48.594;8.598;2023-03-23T00:53:13;1.13;;;1.10;;
16262;SDS011;8239;48.594;8.598;2023-03-23T00:55:40;1.87;;;1.23;;
16262;SDS011;8239;48.594;8.598;2023-03-23T00:58:08;1.77;;;1.23;;
16262;SDS011;8239;48.594;8.598;2023-03-23T01:00:35;1.23;;;1.17;;
16262;SDS011;8239;48.594;8.598;2023-03-23T01:03:03;1.53;;;1.20;;
16262;SDS011;8239;48.594;8.598;2023-03-23T01:05:33;1.43;;;1.10;;
16262;SDS011;8239;48.594;8.598;2023-03-23T01:08:00;1.50;;;1.30;;
16262;SDS011;8239;48.594;8.598;2023-03-23T01:10:28;1.90;;;1.20;;
16262;SDS011;8239;48.594;8.598;2023-03-23T01:12:57;1.67;;;1.20;;
16262;SDS011;8239;48.594;8.598;2023-03-23T01:15:26;1.53;;;1.43;;
16262;SDS011;8239;48.594;8.598;2023-03-23T01:17:53;1.40;;;1.30;;
16262;SDS011;8239;48.594;8.598;2023-03-23T01:20:22;1.63;;;1.37;;
16262;SDS011;8239;48.594;8.598;2023-03-23T01:22:51;1.77;;;1.60;;
16262;SDS011;8239;48.594;8.598;2023-03-23T01:25:25;1.30;;;1.20;;
16262;SDS011;8239;48.594;8.598;2023-03-23T01:27:53;2.03;;;1.40;;
16262;SDS011;8239;48.594;8.598;2023-03-23T01:30:20;1.67;;;1.37;;
16262;SDS011;8239;48.594;8.598;2023-03-23T01:32:47;1.40;;;1.30;;
16262;SDS011;8239;48.594;8.598;2023-03-23T01:35:14;1.40;;;1.30;;
16262;SDS011;8239;48.594;8.598;2023-03-23T01:37:43;1.37;;;1.27;;
16262;SDS011;8239;48.594;8.598;2023-03-23T01:40:12;2.53;;;1.40;;
16262;SDS011;8239;48.594;8.598;2023-03-23T01:42:40;1.40;;;1.30;;
16262;SDS011;8239;48.594;8.598;2023-03-23T01:48:08;1.30;;;1.20;;
16262;SDS011;8239;48.594;8.598;2023-03-23T01:50:41;2.40;;;1.60;;
16262;SDS011;8239;48.594;8.598;2023-03-23T01:53:23;1.40;;;1.30;;
16262;SDS011;8239;48.594;8.598;2023-03-23T01:55:54;1.50;;;1.37;;
16262;SDS011;8239;48.594;8.598;2023-03-23T01:58:24;1.90;;;1.37;;
16262;SDS011;8239;48.594;8.598;2023-03-23T02:00:54;1.57;;;1.20;;
16262;SDS011;8239;48.594;8.598;2023-03-23T02:03:24;1.40;;;1.30;;
16262;SDS011;8239;48.594;8.598;2023-03-23T02:05:51;1.67;;;1.57;;
16262;SDS011;8239;48.594;8.598;2023-03-23T02:08:19;1.93;;;1.50;;
16262;SDS011;8239;48.594;8.598;2023-03-23T02:10:49;2.30;;;1.43;;
16262;SDS011;8239;48.594;8.598;2023-03-23T02:13:16;2.43;;;1.60;;
16262;SDS011;8239;48.594;8.598;2023-03-23T02:15:45;1.57;;;1.40;;
16262;SDS011;8239;48.594;8.598;2023-03-23T02:18:28;2.07;;;1.60;;
16262;SDS011;8239;48.594;8.598;2023-03-23T02:24:01;1.63;;;1.50;;
16262;SDS011;8239;48.594;8.598;2023-03-23T02:26:48;1.97;;;1.77;;
16262;SDS011;8239;48.594;8.598;2023-03-23T02:32:23;2.33;;;1.80;;
16262;SDS011;8239;48.594;8.598;2023-03-23T02:35:23;2.07;;;1.40;;
16262;SDS011;8239;48.594;8.598;2023-03-23T02:37:55;1.70;;;1.60;;
16262;SDS011;8239;48.594;8.598;2023-03-23T02:40:27;1.60;;;1.50;;
16262;SDS011;8239;48.594;8.598;2023-03-23T02:42:59;1.97;;;1.77;;
16262;SDS011;8239;48.594;8.598;2023-03-23T02:45:28;2.43;;;1.70;;
16262;SDS011;8239;48.594;8.598;2023-03-23T02:47:56;2.83;;;2.53;;
16262;SDS011;8239;48.594;8.598;2023-03-23T02:50:33;3.53;;;2.63;;
16262;SDS011;8239;48.594;8.598;2023-03-23T02:53:08;7.67;;;5.33;;
16262;SDS011;8239;48.594;8.598;2023-03-23T02:55:37;5.00;;;3.40;;
16262;SDS011;8239;48.594;8.598;2023-03-23T02:58:07;3.43;;;2.53;;
16262;SDS011;8239;48.594;8.598;2023-03-23T03:00:35;3.40;;;2.63;;
16262;SDS011;8239;48.594;8.598;2023-03-23T03:03:03;3.23;;;2.50;;
16262;SDS011;8239;48.594;8.598;2023-03-23T03:05:35;2.57;;;2.27;;
16262;SDS011;8239;48.594;8.598;2023-03-23T03:08:13;2.13;;;2.00;;
16262;SDS011;8239;48.594;8.598;2023-03-23T03:10:48;2.67;;;1.80;;
16262;SDS011;8239;48.594;8.598;2023-03-23T03:13:22;3.13;;;2.43;;
16262;SDS011;8239;48.594;8.598;2023-03-23T03:15:57;3.63;;;3.20;;
16262;SDS011;8239;48.594;8.598;2023-03-23T03:18:31;2.73;;;1.83;;
16262;SDS011;8239;48.594;8.598;2023-03-23T03:21:06;1.60;;;1.50;;
16262;SDS011;8239;48.594;8.598;2023-03-23T03:23:38;1.70;;;1.60;;
16262;SDS011;8239;48.594;8.598;2023-03-23T03:26:07;1.60;;;1.50;;
16262;SDS011;8239;48.594;8.598;2023-03-23T03:28:37;1.70;;;1.60;;
16262;SDS011;8239;48.594;8.598;2023-03-23T03:31:06;2.13;;;1.53;;
16262;SDS011;8239;48.594;8.598;2023-03-23T03:33:34;2.17;;;1.70;;
16262;SDS011;8239;48.594;8.598;2023-03-23T03:36:02;1.60;;;1.50;;
16262;SDS011;8239;48.594;8.598;2023-03-23T03:38:41;1.60;;;1.50;;
16262;SDS011;8239;48.594;8.598;2023-03-23T03:41:09;1.50;;;1.40;;
16262;SDS011;8239;48.594;8.598;2023-03-23T03:43:36;2.60;;;1.60;;
16262;SDS011;8239;48.594;8.598;2023-03-23T03:46:03;1.63;;;1.53;;
16262;SDS011;8239;48.594;8.598;2023-03-23T03:48:30;1.47;;;1.37;;
16262;SDS011;8239;48.594;8.598;2023-03-23T03:50:57;2.20;;;1.87;;
16262;SDS011;8239;48.594;8.598;2023-03-23T03:53:25;1.57;;;1.40;;
16262;SDS011;8239;48.594;8.598;2023-03-23T03:55:54;1.67;;;1.50;;
16262;SDS011;8239;48.594;8.598;2023-03-23T03:58:24;1.40;;;1.30;;
16262;SDS011;8239;48.594;8.598;2023-03-23T04:00:56;2.60;;;1.80;;
16262;SDS011;8239;48.594;8.598;2023-03-23T04:03:24;2.10;;;1.70;;
16262;SDS011;8239;48.594;8.598;2023-03-23T04:05:51;1.80;;;1.63;;
16262;SDS011;8239;48.594;8.598;2023-03-23T04:08:20;1.90;;;1.50;;
16262;SDS011;8239;48.594;8.598;2023-03-23T04:10:47;2.23;;;1.50;;
16262;SDS011;8239;48.594;8.598;2023-03-23T04:13:15;2.57;;;1.70;;
16262;SDS011;8239;48.594;8.598;2023-03-23T04:15:43;1.90;;;1.50;;
16262;SDS011;8239;48.594;8.598;2023-03-23T04:18:10;1.43;;;1.33;;
16262;SDS011;8239;48.594;8.598;2023-03-23T04:20:40;1.63;;;1.53;;
16262;SDS011;8239;48.594;8.598;2023-03-23T04:23:07;1.90;;;1.67;;
16262;SDS011;8239;48.594;8.598;2023-03-23T04:25:34;1.50;;;1.40;;
16262;SDS011;8239;48.594;8.598;2023-03-23T04:28:01;1.63;;;1.50;;
16262;SDS011;8239;48.594;8.598;2023-03-23T04:30:29;1.60;;;1.50;;
16262;SDS011;8239;48.594;8.598;2023-03-23T04:32:57;2.50;;;1.50;;
16262;SDS011;8239;48.594;8.598;2023-03-23T04:35:26;1.50;;;1.40;;
16262;SDS011;8239;48.594;8.598;2023-03-23T04:37:54;1.50;;;1.40;;
16262;SDS011;8239;48.594;8.598;2023-03-23T04:40:22;2.03;;;1.50;;
16262;SDS011;8239;48.594;8.598;2023-03-23T04:42:49;1.73;;;1.50;;
16262;SDS011;8239;48.594;8.598;2023-03-23T04:45:17;1.83;;;1.50;;
16262;SDS011;8239;48.594;8.598;2023-03-23T04:47:48;2.97;;;1.70;;
16262;SDS011;8239;48.594;8.598;2023-03-23T04:50:23;1.93;;;1.67;;
16262;SDS011;8239;48.594;8.598;2023-03-23T04:52:52;1.93;;;1.70;;
16262;SDS011;8239;48.594;8.598;2023-03-23T04:55:23;1.90;;;1.70;;
16262;SDS011;8239;48.594;8.598;2023-03-23T04:57:51;1.77;;;1.67;;
16262;SDS011;8239;48.594;8.598;2023-03-23T05:00:18;1.57;;;1.47;;
16262;SDS011;8239;48.594;8.598;2023-03-23T05:02:47;1.83;;;1.47;;
16262;SDS011;8239;48.594;8.598;2023-03-23T05:05:17;2.37;;;1.57;;
16262;SDS011;8239;48.594;8.598;2023-03-23T05:07:44;2.00;;;1.60;;
16262;SDS011;8239;48.594;8.598;2023-03-23T05:10:12;3.67;;;1.70;;
16262;SDS011;8239;48.594;8.598;2023-03-23T05:12:40;1.57;;;1.47;;
16262;SDS011;8239;48.594;8.598;2023-03-23T05:15:08;1.70;;;1.60;;
16262;SDS011;8239;48.594;8.598;2023-03-23T05:17:36;1.63;;;1.53;;
16262;SDS011;8239;48.594;8.598;2023-03-23T05:20:05;1.90;;;1.70;;
16262;SDS011;8239;48.594;8.598;2023-03-23T05:22:36;1.70;;;1.50;;
16262;SDS011;8239;48.594;8.598;2023-03-23T05:25:03;1.77;;;1.67;;
16262;SDS011;8239;48.594;8.598;2023-03-23T05:27:34;2.03;;;1.70;;
16262;SDS011;8239;48.594;8.598;2023-03-23T05:30:01;1.63;;;1.53;;
16262;SDS011;8239;48.594;8.598;2023-03-23T05:32:28;1.80;;;1.70;;
16262;SDS011;8239;48.594;8.598;2023-03-23T05:34:56;1.63;;;1.53;;
16262;SDS011;8239;48.594;8.598;2023-03-23T05:37:25;2.67;;;1.60;;
16262;SDS011;8239;48.594;8.598;2023-03-23T05:39:53;2.37;;;1.50;;
16262;SDS011;8239;48.594;8.598;2023-03-23T05:42:20;2.10;;;1.80;;
16262;SDS011;8239;48.594;8.598;2023-03-23T05:44:48;1.60;;;1.50;;
16262;SDS011;8239;48.594;8.598;2023-03-23T05:47:15;1.70;;;1.60;;
16262;SDS011;8239;48.594;8.598;2023-03-23T05:49:42;2.57;;;1.53;;
16262;SDS011;8239;48.594;8.598;2023-03-23T05:52:09;1.97;;;1.70;;
16262;SDS011;8239;48.594;8.598;2023-03-23T05:54:38;1.73;;;1.50;;
16262;SDS011;8239;48.594;8.598;2023-03-23T05:57:06;1.93;;;1.57;;
16262;SDS011;8239;48.594;8.598;2023-03-23T05:59:33;1.43;;;1.33;;
16262;SDS011;8239;48.594;8.598;2023-03-23T06:02:01;1.80;;;1.70;;
16262;SDS011;8239;48.594;8.598;2023-03-23T06:04:27;1.70;;;1.60;;
16262;SDS011;8239;48.594;8.598;2023-03-23T06:06:54;1.70;;;1.60;;
16262;SDS011;8239;48.594;8.598;2023-03-23T06:09:22;1.70;;;1.60;;
16262;SDS011;8239;48.594;8.598;2023-03-23T06:11:51;1.60;;;1.50;;
16262;SDS011;8239;48.594;8.598;2023-03-23T06:14:18;2.10;;;1.87;;
16262;SDS011;8239;48.594;8.598;2023-03-23T06:16:46;1.90;;;1.80;;
16262;SDS011;8239;48.594;8.598;2023-03-23T06:19:13;2.03;;;1.77;;
16262;SDS011;8239;48.594;8.598;2023-03-23T06:21:40;1.80;;;1.70;;
16262;SDS011;8239;48.594;8.598;2023-03-23T06:24:07;2.00;;;1.90;;
16262;SDS011;8239;48.594;8.598;2023-03-23T06:26:35;2.10;;;1.77;;
16262;SDS011;8239;48.594;8.598;2023-03-23T06:29:05;2.20;;;2.00;;
16262;SDS011;8239;48.594;8.598;2023-03-23T06:31:36;2.10;;;1.87;;
16262;SDS011;8239;48.594;8.598;2023-03-23T06:34:05;1.90;;;1.80;;
16262;SDS011;8239;48.594;8.598;2023-03-23T06:36:32;2.43;;;1.97;;
16262;SDS011;8239;48.594;8.598;2023-03-23T06:38:59;2.30;;;1.97;;
16262;SDS011;8239;48.594;8.598;2023-03-23T06:41:26;2.10;;;1.70;;
16262;SDS011;8239;48.594;8.598;2023-03-23T06:43:53;2.13;;;2.03;;
16262;SDS011;8239;48.594;8.598;2023-03-23T06:46:21;2.20;;;2.00;;
16262;SDS011;8239;48.594;8.598;2023-03-23T06:48:48;2.40;;;2.20;;
16262;SDS011;8239;48.594;8.598;2023-03-23T06:51:16;2.60;;;1.60;;
16262;SDS011;8239;48.594;8.598;2023-03-23T06:53:43;2.40;;;2.20;;
16262;SDS011;8239;48.594;8.598;2023-03-23T06:56:10;2.23;;;1.83;;
16262;SDS011;8239;48.594;8.598;2023-03-23T06:58:38;1.57;;;1.47;;
16262;SDS011;8239;48.594;8.598;2023-03-23T07:01:06;2.00;;;1.83;;
16262;SDS011;8239;48.594;8.598;2023-03-23T07:03:35;1.83;;;1.50;;
16262;SDS011;8239;48.594;8.598;2023-03-23T07:06:03;2.57;;;1.80;;
16262;SDS011;8239;48.594;8.598;2023-03-23T07:08:30;2.23;;;1.70;;
16262;SDS011;8239;48.594;8.598;2023-03-23T07:10:57;2.43;;;1.53;;
16262;SDS011;8239;48.594;8.598;2023-03-23T07:13:24;1.50;;;1.40;;
16262;SDS011;8239;48.594;8.598;2023-03-23T07:15:52;1.60;;;1.50;;
16262;SDS011;8239;48.594;8.598;2023-03-23T07:18:19;2.90;;;1.80;;
16262;SDS011;8239;48.594;8.598;2023-03-23T07:20:48;2.73;;;1.60;;
16262;SDS011;8239;48.594;8.598;2023-03-23T07:23:15;1.70;;;1.60;;
16262;SDS011;8239;48.594;8.598;2023-03-23T07:25:43;3.53;;;1.63;;
16262;SDS011;8239;48.594;8.598;2023-03-23T07:28:11;1.67;;;1.57;;
16262;SDS011;8239;48.594;8.598;2023-03-23T07:30:38;1.80;;;1.70;;
16262;SDS011;8239;48.594;8.598;2023-03-23T07:33:05;1.70;;;1.60;;
16262;SDS011;8239;48.594;8.598;2023-03-23T07:35:33;1.70;;;1.60;;
16262;SDS011;8239;48.594;8.598;2023-03-23T07:38:02;1.83;;;1.50;;
16262;SDS011;8239;48.594;8.598;2023-03-23T07:40:30;2.23;;;1.70;;
16262;SDS011;8239;48.594;8.598;2023-03-23T07:42:58;2.10;;;1.90;;
16262;SDS011;8239;48.594;8.598;2023-03-23T07:45:26;2.43;;;1.80;;
16262;SDS011;8239;48.594;8.598;2023-03-23T07:47:54;2.80;;;2.13;;
16262;SDS011;8239;48.594;8.598;2023-03-23T07:50:21;3.20;;;2.57;;
16262;SDS011;8239;48.594;8.598;2023-03-23T07:52:49;1.87;;;1.77;;
16262;SDS011;8239;48.594;8.598;2023-03-23T07:55:19;2.10;;;1.90;;
16262;SDS011;8239;48.594;8.598;2023-03-23T07:57:46;2.00;;;1.90;;
16262;SDS011;8239;48.594;8.598;2023-03-23T08:00:14;2.53;;;1.97;;
16262;SDS011;8239;48.594;8.598;2023-03-23T08:02:43;2.47;;;1.80;;
16262;SDS011;8239;48.594;8.598;2023-03-23T08:05:11;2.13;;;1.90;;
16262;SDS011;8239;48.594;8.598;2023-03-23T08:07:39;1.77;;;1.60;;
16262;SDS011;8239;48.594;8.598;2023-03-23T08:10:07;1.93;;;1.83;;
16262;SDS011;8239;48.594;8.598;2023-03-23T08:12:38;2.17;;;1.97;;
16262;SDS011;8239;48.594;8.598;2023-03-23T08:15:07;3.87;;;1.90;;
16262;SDS011;8239;48.594;8.598;2023-03-23T08:17:37;1.70;;;1.60;;
16262;SDS011;8239;48.594;8.598;2023-03-23T08:20:05;2.10;;;1.90;;
16262;SDS011;8239;48.594;8.598;2023-03-23T08:22:36;2.10;;;1.90;;
16262;SDS011;8239;48.594;8.598;2023-03-23T08:25:04;2.10;;;1.83;;
16262;SDS011;8239;48.594;8.598;2023-03-23T08:27:33;1.73;;;1.63;;
16262;SDS011;8239;48.594;8.598;2023-03-23T08:30:02;2.17;;;1.70;;
16262;SDS011;8239;48.594;8.598;2023-03-23T08:32:31;2.23;;;2.03;;
16262;SDS011;8239;48.594;8.598;2023-03-23T08:34:59;2.20;;;2.00;;
16262;SDS011;8239;48.594;8.598;2023-03-23T08:37:26;2.33;;;1.90;;
16262;SDS011;8239;48.594;8.598;2023-03-23T08:39:53;1.70;;;1.60;;
16262;SDS011;8239;48.594;8.598;2023-03-23T08:42:22;1.90;;;1.80;;
16262;SDS011;8239;48.594;8.598;2023-03-23T08:44:50;2.43;;;1.70;;
16262;SDS011;8239;48.594;8.598;2023-03-23T08:47:18;1.93;;;1.67;;
16262;SDS011;8239;48.594;8.598;2023-03-23T08:49:45;1.80;;;1.70;;
16262;SDS011;8239;48.594;8.598;2023-03-23T08:52:17;2.63;;;2.40;;
16262;SDS011;8239;48.594;8.598;2023-03-23T08:54:44;2.20;;;2.00;;
16262;SDS011;8239;48.594;8.598;2023-03-23T08:57:12;3.47;;;2.07;;
16262;SDS011;8239;48.594;8.598;2023-03-23T08:59:41;1.90;;;1.70;;
16262;SDS011;8239;48.594;8.598;2023-03-23T09:02:08;1.93;;;1.80;;
16262;SDS011;8239;48.594;8.598;2023-03-23T09:04:38;2.73;;;1.83;;
16262;SDS011;8239;48.594;8.598;2023-03-23T09:07:07;2.30;;;2.10;;
16262;SDS011;8239;48.594;8.598;2023-03-23T09:09:36;2.60;;;1.83;;
16262;SDS011;8239;48.594;8.598;2023-03-23T09:12:04;2.43;;;2.00;;
16262;SDS011;8239;48.594;8.598;2023-03-23T09:14:31;2.30;;;2.10;;
16262;SDS011;8239;48.594;8.598;2023-03-23T09:16:58;2.10;;;1.90;;
16262;SDS011;8239;48.594;8.598;2023-03-23T09:19:25;2.10;;;1.90;;
16262;SDS011;8239;48.594;8.598;2023-03-23T09:21:54;2.30;;;2.10;;
16262;SDS011;8239;48.594;8.598;2023-03-23T09:24:21;2.37;;;2.10;;
16262;SDS011;8239;48.594;8.598;2023-03-23T09:26:48;2.60;;;2.17;;
16262;SDS011;8239;48.594;8.598;2023-03-23T09:29:15;2.43;;;1.73;;
16262;SDS011;8239;48.594;8.598;2023-03-23T09:31:43;2.43;;;2.00;;
16262;SDS011;8239;48.594;8.598;2023-03-23T09:34:11;2.33;;;1.70;;
16262;SDS011;8239;48.594;8.598;2023-03-23T09:36:40;2.10;;;1.90;;
16262;SDS011;8239;48.594;8.598;2023-03-23T09:39:09;2.13;;;1.93;;
16262;SDS011;8239;48.594;8.598;2023-03-23T09:41:40;2.23;;;2.00;;
16262;SDS011;8239;48.594;8.598;2023-03-23T09:44:22;2.85;;;2.20;;
16262;SDS011;8239;48.594;8.598;2023-03-23T09:46:56;3.05;;;2.08;;
16262;SDS011;8239;48.594;8.598;2023-03-23T09:49:29;2.35;;;2.15;;
16262;SDS011;8239;48.594;8.598;2023-03-23T09:52:00;2.47;;;1.90;;
16262;SDS011;8239;48.594;8.598;2023-03-23T09:54:32;2.20;;;1.88;;
16262;SDS011;8239;48.594;8.598;2023-03-23T09:57:03;2.60;;;1.88;;
16262;SDS011;8239;48.594;8.598;2023-03-23T09:59:37;2.20;;;2.00;;
16262;SDS011;8239;48.594;8.598;2023-03-23T10:02:11;3.17;;;1.80;;
16262;SDS011;8239;48.594;8.598;2023-03-23T10:04:43;2.42;;;1.98;;
16262;SDS011;8239;48.594;8.598;2023-03-23T10:07:13;2.95;;;2.05;;
16262;SDS011;8239;48.594;8.598;2023-03-23T10:09:46;1.85;;;1.75;;
16262;SDS011;8239;48.594;8.598;2023-03-23T10:12:21;1.95;;;1.83;;
16262;SDS011;8239;48.594;8.598;2023-03-23T10:15:02;3.97;;;2.10;;
16262;SDS011;8239;48.594;8.598;2023-03-23T10:17:39;1.80;;;1.70;;
16262;SDS011;8239;48.594;8.598;2023-03-23T10:20:21;2.05;;;1.90;;
16262;SDS011;8239;48.594;8.598;2023-03-23T10:22:56;1.90;;;1.80;;
16262;SDS011;8239;48.594;8.598;2023-03-23T10:25:31;1.80;;;1.70;;
16262;SDS011;8239;48.594;8.598;2023-03-23T10:28:03;1.77;;;1.67;;
16262;SDS011;8239;48.594;8.598;2023-03-23T10:30:35;2.70;;;2.00;;
16262;SDS011;8239;48.594;8.598;2023-03-23T10:33:05;1.95;;;1.65;;
16262;SDS011;8239;48.594;8.598;2023-03-23T10:35:43;2.20;;;2.00;;
16262;SDS011;8239;48.594;8.598;2023-03-23T10:38:14;2.20;;;2.03;;
16262;SDS011;8239;48.594;8.598;2023-03-23T10:40:50;1.75;;;1.65;;
16262;SDS011;8239;48.594;8.598;2023-03-23T10:43:20;2.95;;;1.80;;
16262;SDS011;8239;48.594;8.598;2023-03-23T10:45:50;1.85;;;1.70;;
16262;SDS011;8239;48.594;8.598;2023-03-23T10:48:23;1.92;;;1.80;;
16262;SDS011;8239;48.594;8.598;2023-03-23T10:50:55;1.90;;;1.80;;
16262;SDS011;8239;48.594;8.598;2023-03-23T10:53:26;1.83;;;1.60;;
16262;SDS011;8239;48.594;8.598;2023-03-23T10:56:00;2.08;;;1.70;;
16262;SDS011;8239;48.594;8.598;2023-03-23T10:58:28;1.70;;;1.60;;
16262;SDS011;8239;48.594;8.598;2023-03-23T11:00:57;1.80;;;1.60;;
16262;SDS011;8239;48.594;8.598;2023-03-23T11:03:28;1.63;;;1.52;;
16262;SDS011;8239;48.594;8.598;2023-03-23T11:06:05;1.73;;;1.45;;
16262;SDS011;8239;48.594;8.598;2023-03-23T11:08:34;2.50;;;1.88;;
16262;SDS011;8239;48.594;8.598;2023-03-23T11:11:10;1.80;;;1.65;;
16262;SDS011;8239;48.594;8.598;2023-03-23T11:13:42;1.63;;;1.52;;
16262;SDS011;8239;48.594;8.598;2023-03-23T11:16:10;2.03;;;1.60;;
16262;SDS011;8239;48.594;8.598;2023-03-23T11:18:49;1.73;;;1.60;;
16262;SDS011;8239;48.594;8.598;2023-03-23T11:21:17;2.05;;;1.70;;
16262;SDS011;8239;48.594;8.598;2023-03-23T11:23:48;1.63;;;1.50;;
16262;SDS011;8239;48.594;8.598;2023-03-23T11:26:19;1.73;;;1.58;;
16262;SDS011;8239;48.594;8.598;2023-03-23T11:28:50;1.50;;;1.40;;
16262;SDS011;8239;48.594;8.598;2023-03-23T11:31:21;2.78;;;1.55;;
16262;SDS011;8239;48.594;8.598;2023-03-23T11:33:51;1.70;;;1.60;;
16262;SDS011;8239;48.594;8.598;2023-03-23T11:36:21;1.85;;;1.75;;
16262;SDS011;8239;48.594;8.598;2023-03-23T11:38:56;1.92;;;1.83;;
16262;SDS011;8239;48.594;8.598;2023-03-23T11:41:28;1.70;;;1.60;;
16262;SDS011;8239;48.594;8.598;2023-03-23T11:44:01;1.83;;;1.70;;
16262;SDS011;8239;48.594;8.598;2023-03-23T11:46:40;1.65;;;1.55;;
16262;SDS011;8239;48.594;8.598;2023-03-23T11:49:18;1.58;;;1.40;;
16262;SDS011;8239;48.594;8.598;2023-03-23T11:51:54;1.67;;;1.55;;
16262;SDS011;8239;48.594;8.598;2023-03-23T11:54:29;1.58;;;1.50;;
16262;SDS011;8239;48.594;8.598;2023-03-23T11:57:00;2.63;;;1.60;;
16262;SDS011;8239;48.594;8.598;2023-03-23T11:59:27;2.63;;;1.80;;
16262;SDS011;8239;48.594;8.598;2023-03-23T12:01:59;1.70;;;1.60;;
16262;SDS011;8239;48.594;8.598;2023-03-23T12:04:35;1.83;;;1.60;;
16262;SDS011;8239;48.594;8.598;2023-03-23T12:07:17;1.80;;;1.70;;
16262;SDS011;8239;48.594;8.598;2023-03-23T12:09:56;1.88;;;1.35;;
16262;SDS011;8239;48.594;8.598;2023-03-23T12:12:35;1.80;;;1.70;;
16262;SDS011;8239;48.594;8.598;2023-03-23T12:15:10;1.67;;;1.50;;
16262;SDS011;8239;48.594;8.598;2023-03-23T12:17:47;2.85;;;1.73;;
16262;SDS011;8239;48.594;8.598;2023-03-23T12:20:25;1.77;;;1.67;;
16262;SDS011;8239;48.594;8.598;2023-03-23T12:23:03;2.05;;;1.70;;
16262;SDS011;8239;48.594;8.598;2023-03-23T12:25:43;1.92;;;1.83;;
16262;SDS011;8239;48.594;8.598;2023-03-23T12:28:28;2.00;;;1.75;;
16262;SDS011;8239;48.594;8.598;2023-03-23T12:31:06;2.28;;;2.08;;
16262;SDS011;8239;48.594;8.598;2023-03-23T12:33:41;2.25;;;2.00;;
16262;SDS011;8239;48.594;8.598;2023-03-23T12:36:19;2.10;;;1.90;;
16262;SDS011;8239;48.594;8.598;2023-03-23T12:38:58;1.90;;;1.80;;
16262;SDS011;8239;48.594;8.598;2023-03-23T12:41:47;1.80;;;1.70;;
16262;SDS011;8239;48.594;8.598;2023-03-23T12:44:21;3.10;;;1.90;;
16262;SDS011;8239;48.594;8.598;2023-03-23T12:46:57;2.53;;;1.90;;
16262;SDS011;8239;48.594;8.598;2023-03-23T12:49:46;1.92;;;1.77;;
16262;SDS011;8239;48.594;8.598;2023-03-23T12:52:20;2.17;;;1.67;;
16262;SDS011;8239;48.594;8.598;2023-03-23T12:54:52;1.88;;;1.75;;
16262;SDS011;8239;48.594;8.598;2023-03-23T12:57:27;1.67;;;1.58;;
16262;SDS011;8239;48.594;8.598;2023-03-23T13:00:02;2.40;;;2.20;;
16262;SDS011;8239;48.594;8.598;2023-03-23T13:02:37;2.50;;;2.30;;
16262;SDS011;8239;48.594;8.598;2023-03-23T13:05:10;2.00;;;1.90;;
16262;SDS011;8239;48.594;8.598;2023-03-23T13:07:53;2.28;;;2.10;;
16262;SDS011;8239;48.594;8.598;2023-03-23T13:10:27;2.13;;;1.75;;
16262;SDS011;8239;48.594;8.598;2023-03-23T13:12:58;1.83;;;1.60;;
16262;SDS011;8239;48.594;8.598;2023-03-23T13:15:29;2.50;;;1.75;;
16262;SDS011;8239;48.594;8.598;2023-03-23T13:18:10;2.40;;;1.90;;
16262;SDS011;8239;48.594;8.598;2023-03-23T13:20:48;1.70;;;1.60;;
16262;SDS011;8239;48.594;8.598;2023-03-23T13:23:22;1.70;;;1.58;;
16262;SDS011;8239;48.594;8.598;2023-03-23T13:25:53;1.85;;;1.70;;
16262;SDS011;8239;48.594;8.598;2023-03-23T13:28:23;2.50;;;2.00;;
16262;SDS011;8239;48.594;8.598;2023-03-23T13:30:58;1.80;;;1.70;;
16262;SDS011;8239;48.594;8.598;2023-03-23T13:33:36;3.00;;;1.90;;
16262;SDS011;8239;48.594;8.598;2023-03-23T13:36:10;1.80;;;1.70;;
16262;SDS011;8239;48.594;8.598;2023-03-23T13:38:43;1.88;;;1.77;;
16262;SDS011;8239;48.594;8.598;2023-03-23T13:41:13;1.80;;;1.70;;
16262;SDS011;8239;48.594;8.598;2023-03-23T13:43:43;2.00;;;1.90;;
16262;SDS011;8239;48.594;8.598;2023-03-23T13:46:23;2.13;;;1.67;;
16262;SDS011;8239;48.594;8.598;2023-03-23T13:49:02;1.80;;;1.70;;
16262;SDS011;8239;48.594;8.598;2023-03-23T13:51:47;1.80;;;1.70;;
16262;SDS011;8239;48.594;8.598;2023-03-23T13:54:23;1.80;;;1.70;;
16262;SDS011;8239;48.594;8.598;2023-03-23T13:56:56;2.38;;;1.80;;
16262;SDS011;8239;48.594;8.598;2023-03-23T13:59:31;1.95;;;1.77;;
16262;SDS011;8239;48.594;8.598;2023-03-23T14:05:19;1.60;;;1.50;;
16262;SDS011;8239;48.594;8.598;2023-03-23T14:08:01;2.42;;;1.90;;
16262;SDS011;8239;48.594;8.598;2023-03-23T14:10:33;2.00;;;1.77;;
16262;SDS011;8239;48.594;8.598;2023-03-23T14:13:03;2.20;;;1.80;;
16262;SDS011;8239;48.594;8.598;2023-03-23T14:15:57;1.90;;;1.80;;
16262;SDS011;8239;48.594;8.598;2023-03-23T14:18:30;2.10;;;1.70;;
16262;SDS011;8239;48.594;8.598;2023-03-23T14:21:02;1.60;;;1.50;;
16262;SDS011;8239;48.594;8.598;2023-03-23T14:23:30;3.22;;;1.52;;
16262;SDS011;8239;48.594;8.598;2023-03-23T14:25:59;2.95;;;1.70;;
16262;SDS011;8239;48.594;8.598;2023-03-23T14:28:37;1.95;;;1.67;;
16262;SDS011;8239;48.594;8.598;2023-03-23T14:31:05;2.50;;;1.90;;
16262;SDS011;8239;48.594;8.598;2023-03-23T14:33:44;1.80;;;1.60;;
16262;SDS011;8239;48.594;8.598;2023-03-23T14:36:13;1.67;;;1.55;;
16262;SDS011;8239;48.594;8.598;2023-03-23T14:38:40;1.80;;;1.70;;
16262;SDS011;8239;48.594;8.598;2023-03-23T14:41:10;1.77;;;1.58;;
16262;SDS011;8239;48.594;8.598;2023-03-23T14:43:38;1.90;;;1.80;;
16262;SDS011;8239;48.594;8.598;2023-03-23T14:46:07;1.80;;;1.67;;
16262;SDS011;8239;48.594;8.598;2023-03-23T14:48:37;1.60;;;1.50;;
16262;SDS011;8239;48.594;8.598;2023-03-23T14:51:07;1.80;;;1.70;;
16262;SDS011;8239;48.594;8.598;2023-03-23T14:53:43;1.83;;;1.70;;
16262;SDS011;8239;48.594;8.598;2023-03-23T14:56:11;1.90;;;1.60;;
16262;SDS011;8239;48.594;8.598;2023-03-23T14:58:42;2.10;;;1.90;;
16262;SDS011;8239;48.594;8.598;2023-03-23T15:01:10;1.70;;;1.60;;
16262;SDS011;8239;48.594;8.598;2023-03-23T15:03:44;2.90;;;1.90;;
16262;SDS011;8239;48.594;8.598;2023-03-23T15:06:17;1.85;;;1.75;;
16262;SDS011;8239;48.594;8.598;2023-03-23T15:08:48;2.42;;;1.90;;
16262;SDS011;8239;48.594;8.598;2023-03-23T15:11:21;2.17;;;1.98;;
16262;SDS011;8239;48.594;8.598;2023-03-23T15:13:52;1.70;;;1.60;;
16262;SDS011;8239;48.594;8.598;2023-03-23T15:16:22;1.77;;;1.65;;
16262;SDS011;8239;48.594;8.598;2023-03-23T15:18:53;1.80;;;1.48;;
16262;SDS011;8239;48.594;8.598;2023-03-23T15:21:26;1.65;;;1.55;;
16262;SDS011;8239;48.594;8.598;2023-03-23T15:23:55;2.17;;;1.70;;
16262;SDS011;8239;48.594;8.598;2023-03-23T15:26:25;1.98;;;1.60;;
16262;SDS011;8239;48.594;8.598;2023-03-23T15:29:01;2.00;;;1.77;;
16262;SDS011;8239;48.594;8.598;2023-03-23T15:31:38;2.03;;;1.60;;
16262;SDS011;8239;48.594;8.598;2023-03-23T15:34:11;2.00;;;1.60;;